Time;durP1;ratioP1;P1;durP2;ratioP2;P2;SDS_P1;SDS_P2;PMS_P1;PMS_P2;Temp;Humidity;BMP_temperature;BMP_pressure;BME280_temperature;BME280_humidity;BME280_pressure;Samples;Min_cycle;Max_cycle;Signal;HPM_P1;HPM_P2
2022/11/10 00:00:51;;;;;;;;;;;;;;;;;;5070953;28;1162;-77
2022/11/10 00:03:16;;;;;;;;;;;;;;;;;;5053755;28;1182;-77
2022/11/10 00:05:42;;;;;;;;;;;;;;;;;;5054190;28;1910;-77
2022/11/10 00:08:09;;;;;;;;;;;;;;;;;;5070410;28;1361;-77
2022/11/10 00:10:55;;;;;;;;;;;;;;;;;;5072005;28;860;-77
2022/11/10 00:13:20;;;;;;;;;;;;;;;;;;5071611;28;1531;-77
2022/11/10 00:18:29;;;;;;;;;;;;;;;;;;5070736;28;958;-76
2022/11/10 00:21:00;;;;;;;;;;;;;;;;;;5071445;28;876;-77
2022/11/10 00:23:25;;;;;;;;;;;;;;;;;;5070040;28;1249;-76
2022/11/10 00:25:51;;;;;;;;;;;;;;;;;;5069984;28;1910;-76
2022/11/10 00:28:16;;;;;;;;;;;;;;;;;;5052628;28;1193;-77
2022/11/10 00:30:41;;;;;;;;;;;;;;;;;;5054437;28;1119;-77
2022/11/10 00:33:06;;;;;;;;;;;;;;;;;;5056158;28;1241;-77
2022/11/10 00:35:32;;;;;;;;;;;;;;;;;;5074654;28;837;-77
2022/11/10 00:37:57;;;;;;;;;;;;;;;;;;5073113;28;1111;-76
2022/11/10 00:40:22;;;;;;;;;;;;;;;;;;5074715;28;1027;-76
2022/11/10 00:42:48;;;;;;;;;;;;;;;;;;5056993;28;1229;-77
2022/11/10 00:45:13;;;;;;;;;;;;;;;;;;5072735;28;1909;-76
2022/11/10 00:47:38;;;;;;;;;;;;;;;;;;5073410;28;873;-76
2022/11/10 00:50:04;;;;;;;;;;;;;;;;;;5073053;28;1012;-77
2022/11/10 00:52:29;;;;;;;;;;;;;;;;;;5073587;28;1122;-76
2022/11/10 00:54:54;;;;;;;;;;;;;;;;;;5073179;28;1238;-77
2022/11/10 00:57:19;;;;;;;;;;;;;;;;;;5073348;28;872;-77
2022/11/10 00:59:44;;;;;;;;;;;;;;;;;;5074373;28;829;-77
2022/11/10 01:02:10;;;;;;;;;;;;;;;;;;5074043;28;908;-76
2022/11/10 01:04:35;;;;;;;;;;;;;;;;;;5073412;28;1162;-77
2022/11/10 01:07:00;;;;;;;;;;;;;;;;;;5073109;28;1918;-78
2022/11/10 01:09:25;;;;;;;;;;;;;;;;;;5073529;28;1192;-77
2022/11/10 01:11:51;;;;;;;;;;;;;;;;;;5080882;28;1296;-77
2022/11/10 01:14:16;;;;;;;;;;;;;;;;;;5079568;28;1218;-77
2022/11/10 01:16:41;;;;;;;;;;;;;;;;;;5084649;28;1171;-76
2022/11/10 01:19:06;;;;;;;;;;;;;;;;;;5075706;28;1182;-77
2022/11/10 01:21:32;;;;;;;;;;;;;;;;;;5093241;28;884;-77
2022/11/10 01:23:57;;;;;;;;;;;;;;;;;;5095098;28;817;-77
2022/11/10 01:26:23;;;;;;;;;;;;;;;;;;5077273;28;1901;-77
2022/11/10 01:28:48;;;;;;;;;;;;;;;;;;5094118;28;805;-77
2022/11/10 01:31:15;;;;;;;;;;;;;;;;;;5093227;28;1018;-77
2022/11/10 01:33:41;;;;;;;;;;;;;;;;;;5093552;28;1178;-77
2022/11/10 01:36:07;;;;;;;;;;;;;;;;;;5076942;28;1198;-77
2022/11/10 01:38:34;;;;;;;;;;;;;;;;;;5094836;28;1131;-77
2022/11/10 01:40:59;;;;;;;;;;;;;;;;;;5092518;28;1174;-77
2022/11/10 01:43:25;;;;;;;;;;;;;;;;;;5092978;28;877;-77
2022/11/10 01:45:52;;;;;;;;;;;;;;;;;;5094672;28;1909;-77
2022/11/10 01:48:20;;;;;;;;;;;;;;;;;;5092922;28;1256;-77
2022/11/10 01:50:46;;;;;;;;;;;;;;;;;;5093051;28;996;-77
2022/11/10 01:53:15;;;;;;;;;;;;;;;;;;5075794;28;1150;-77
2022/11/10 01:55:42;;;;;;;;;;;;;;;;;;5092645;28;1173;-77
2022/11/10 01:58:08;;;;;;;;;;;;;;;;;;5092217;28;1345;-77
2022/11/10 02:00:33;;;;;;;;;;;;;;;;;;5092291;28;1252;-76
2022/11/10 02:03:11;;;;;;;;;;;;;;;;;;5075309;28;1269;-77
2022/11/10 02:05:36;;;;;;;;;;;;;;;;;;5093667;28;1957;-77
2022/11/10 02:08:02;;;;;;;;;;;;;;;;;;5091305;28;1162;-77
2022/11/10 02:10:27;;;;;;;;;;;;;;;;;;5092174;28;1360;-77
2022/11/10 02:12:53;;;;;;;;;;;;;;;;;;5093892;28;891;-76
2022/11/10 02:15:18;;;;;;;;;;;;;;;;;;5092033;28;900;-76
2022/11/10 02:17:45;;;;;;;;;;;;;;;;;;5075226;28;1321;-77
2022/11/10 02:20:12;;;;;;;;;;;;;;;;;;5092243;28;1111;-78
2022/11/10 02:22:38;;;;;;;;;;;;;;;;;;5092002;28;1343;-77
2022/11/10 02:25:03;;;;;;;;;;;;;;;;;;5074923;28;1957;-77
2022/11/10 02:27:29;;;;;;;;;;;;;;;;;;5091716;28;1142;-76
2022/11/10 02:29:55;;;;;;;;;;;;;;;;;;5093058;28;844;-77
2022/11/10 02:32:20;;;;;;;;;;;;;;;;;;5091576;28;901;-76
2022/11/10 02:34:46;;;;;;;;;;;;;;;;;;5091175;28;1308;-77
2022/11/10 02:37:11;;;;;;;;;;;;;;;;;;5092259;28;856;-77
2022/11/10 02:39:36;;;;;;;;;;;;;;;;;;5091514;28;868;-77
2022/11/10 02:42:02;;;;;;;;;;;;;;;;;;5093060;28;943;-76
2022/11/10 02:44:27;;;;;;;;;;;;;;;;;;5091716;28;915;-77
2022/11/10 02:46:52;;;;;;;;;;;;;;;;;;5092372;28;1965;-76
2022/11/10 02:49:18;;;;;;;;;;;;;;;;;;5092284;28;852;-76
2022/11/10 02:51:43;;;;;;;;;;;;;;;;;;5074950;28;1388;-77
2022/11/10 02:54:08;;;;;;;;;;;;;;;;;;5090795;28;848;-77
2022/11/10 02:56:34;;;;;;;;;;;;;;;;;;5091600;28;884;-77
2022/11/10 02:58:59;;;;;;;;;;;;;;;;;;5091802;28;896;-77
2022/11/10 03:01:25;;;;;;;;;;;;;;;;;;5092770;28;1003;-77
2022/11/10 03:03:50;;;;;;;;;;;;;;;;;;5075131;28;1095;-76
2022/11/10 03:06:15;;;;;;;;;;;;;;;;;;5075087;28;1963;-76
2022/11/10 03:08:40;;;;;;;;;;;;;;;;;;5093766;28;1039;-77
2022/11/10 03:11:06;;;;;;;;;;;;;;;;;;5075208;28;1099;-77
2022/11/10 03:13:31;;;;;;;;;;;;;;;;;;5093730;28;762;-77
2022/11/10 03:15:56;;;;;;;;;;;;;;;;;;5075646;28;1254;-77
2022/11/10 03:18:22;;;;;;;;;;;;;;;;;;5091638;28;988;-77
2022/11/10 03:20:48;;;;;;;;;;;;;;;;;;5093208;28;907;-77
2022/11/10 03:23:15;;;;;;;;;;;;;;;;;;5091350;28;1336;-77
2022/11/10 03:25:40;;;;;;;;;;;;;;;;;;5092033;28;1898;-77
2022/11/10 03:28:05;;;;;;;;;;;;;;;;;;5091585;28;1178;-77
2022/11/10 03:30:31;;;;;;;;;;;;;;;;;;5091336;28;900;-77
2022/11/10 03:32:56;;;;;;;;;;;;;;;;;;5092382;28;1076;-76
2022/11/10 03:35:21;;;;;;;;;;;;;;;;;;5073544;28;1375;-77
2022/11/10 03:37:47;;;;;;;;;;;;;;;;;;5091960;28;967;-76
2022/11/10 03:40:12;;;;;;;;;;;;;;;;;;5090409;28;1383;-77
2022/11/10 03:42:41;;;;;;;;;;;;;;;;;;5092224;28;914;-76
2022/11/10 03:45:07;;;;;;;;;;;;;;;;;;5090712;28;1942;-76
2022/11/10 03:47:32;;;;;;;;;;;;;;;;;;5090413;28;1263;-77
2022/11/10 03:49:57;;;;;;;;;;;;;;;;;;5073778;28;1124;-77
2022/11/10 03:52:22;;;;;;;;;;;;;;;;;;5090102;28;903;-77
2022/11/10 03:54:48;;;;;;;;;;;;;;;;;;5073698;28;1179;-77
2022/11/10 03:57:13;;;;;;;;;;;;;;;;;;5093576;28;994;-77
2022/11/10 03:59:38;;;;;;;;;;;;;;;;;;5074481;28;1169;-77
2022/11/10 04:02:04;;;;;;;;;;;;;;;;;;5090499;28;841;-77
2022/11/10 04:10:10;;;;;;;;;;;;;;;;;;5095019;28;693;-77
2022/11/10 04:18:25;;;;;;;;;;;;;;;;;;5095130;28;718;-77
2022/11/10 04:20:57;;;;;;;;;;;;;;;;;;5095329;28;821;-77
2022/11/10 04:23:26;;;;;;;;;;;;;;;;;;5095386;28;852;-77
2022/11/10 04:28:40;;;;;;;;;;;;;;;;;;5095862;28;765;-76
2022/11/10 04:31:06;;;;;;;;;;;;;;;;;;5094266;28;1162;-77
2022/11/10 04:33:31;;;;;;;;;;;;;;;;;;5093563;28;1088;-77
2022/11/10 04:35:57;;;;;;;;;;;;;;;;;;5095506;28;903;-77
2022/11/10 04:38:23;;;;;;;;;;;;;;;;;;5076835;28;1114;-77
2022/11/10 04:40:48;;;;;;;;;;;;;;;;;;5095294;28;947;-77
2022/11/10 04:43:13;;;;;;;;;;;;;;;;;;5076821;28;1238;-77
2022/11/10 04:45:38;;;;;;;;;;;;;;;;;;5095378;28;1910;-77
2022/11/10 04:48:04;;;;;;;;;;;;;;;;;;5095956;28;1127;-77
2022/11/10 04:50:29;;;;;;;;;;;;;;;;;;5093926;28;1210;-77
2022/11/10 04:52:54;;;;;;;;;;;;;;;;;;5095675;28;990;-77
2022/11/10 04:55:20;;;;;;;;;;;;;;;;;;5080784;28;1187;-77
2022/11/10 04:57:45;;;;;;;;;;;;;;;;;;5080658;28;1199;-76
2022/11/10 05:00:11;;;;;;;;;;;;;;;;;;5082113;28;1273;-76
2022/11/10 05:02:36;;;;;;;;;;;;;;;;;;5062755;28;1230;-76
2022/11/10 05:05:02;;;;;;;;;;;;;;;;;;5078313;28;1081;-76
2022/11/10 05:07:27;;;;;;;;;;;;;;;;;;5076506;28;1967;-76
2022/11/10 05:09:53;;;;;;;;;;;;;;;;;;5076283;28;903;-76
2022/11/10 05:12:18;;;;;;;;;;;;;;;;;;5076691;28;1139;-76
2022/11/10 05:14:43;;;;;;;;;;;;;;;;;;5074268;28;1213;-76
2022/11/10 05:17:08;;;;;;;;;;;;;;;;;;5055945;28;1198;-76
2022/11/10 05:19:34;;;;;;;;;;;;;;;;;;5073422;28;1119;-76
2022/11/10 05:21:59;;;;;;;;;;;;;;;;;;5073290;28;1182;-77
2022/11/10 05:24:24;;;;;;;;;;;;;;;;;;5074421;28;1035;-78
2022/11/10 05:26:49;;;;;;;;;;;;;;;;;;5073943;28;1918;-76
2022/11/10 05:29:15;;;;;;;;;;;;;;;;;;5074563;28;975;-76
2022/11/10 05:31:40;;;;;;;;;;;;;;;;;;5073552;28;1242;-76
2022/11/10 05:34:05;;;;;;;;;;;;;;;;;;5074861;28;1283;-76
2022/11/10 05:36:30;;;;;;;;;;;;;;;;;;5072832;28;858;-77
2022/11/10 05:38:55;;;;;;;;;;;;;;;;;;5076895;28;1207;-77
2022/11/10 05:41:21;;;;;;;;;;;;;;;;;;5084505;28;1144;-77
2022/11/10 05:43:46;;;;;;;;;;;;;;;;;;5069635;28;1328;-77
2022/11/10 05:46:11;;;;;;;;;;;;;;;;;;5099091;28;1902;-77
2022/11/10 05:48:39;;;;;;;;;;;;;;;;;;5100943;28;986;-77
2022/11/10 05:51:04;;;;;;;;;;;;;;;;;;5098237;28;1098;-78
2022/11/10 05:53:29;;;;;;;;;;;;;;;;;;5087407;28;1363;-77
2022/11/10 05:55:55;;;;;;;;;;;;;;;;;;5089316;28;1162;-77
2022/11/10 05:58:20;;;;;;;;;;;;;;;;;;5076366;28;1207;-78
2022/11/10 06:00:46;;;;;;;;;;;;;;;;;;5076615;28;1283;-77
2022/11/10 06:03:13;;;;;;;;;;;;;;;;;;5077607;28;1156;-77
2022/11/10 06:05:38;;;;;;;;;;;;;;;;;;5077101;28;1901;-77
2022/11/10 06:08:04;;;;;;;;;;;;;;;;;;5076151;28;1082;-77
2022/11/10 06:10:30;;;;;;;;;;;;;;;;;;5076529;28;837;-77
2022/11/10 06:12:56;;;;;;;;;;;;;;;;;;5077903;28;824;-77
2022/11/10 06:15:22;;;;;;;;;;;;;;;;;;5076902;28;1225;-77
2022/11/10 06:17:48;;;;;;;;;;;;;;;;;;5079397;28;1054;-77
2022/11/10 06:20:15;;;;;;;;;;;;;;;;;;5078536;28;896;-77
2022/11/10 06:22:41;;;;;;;;;;;;;;;;;;5077368;28;1284;-77
2022/11/10 06:25:07;;;;;;;;;;;;;;;;;;5078572;28;1082;-77
2022/11/10 06:27:32;;;;;;;;;;;;;;;;;;5073583;28;1972;-77
2022/11/10 06:29:57;;;;;;;;;;;;;;;;;;5073882;28;929;-77
2022/11/10 06:32:23;;;;;;;;;;;;;;;;;;5056871;28;1223;-77
2022/11/10 06:34:48;;;;;;;;;;;;;;;;;;5073375;28;1154;-78
2022/11/10 06:37:13;;;;;;;;;;;;;;;;;;5056741;28;1286;-78
2022/11/10 06:39:38;;;;;;;;;;;;;;;;;;5073185;28;1174;-78
2022/11/10 06:42:04;;;;;;;;;;;;;;;;;;5073103;28;1241;-78
2022/11/10 06:44:29;;;;;;;;;;;;;;;;;;5056404;28;1254;-78
2022/11/10 06:46:54;;;;;;;;;;;;;;;;;;5073037;28;1914;-80
2022/11/10 06:49:20;;;;;;;;;;;;;;;;;;5055916;28;1202;-79
2022/11/10 06:51:46;;;;;;;;;;;;;;;;;;5072327;28;1155;-79
2022/11/10 06:54:11;;;;;;;;;;;;;;;;;;5073283;28;848;-79
2022/11/10 06:56:37;;;;;;;;;;;;;;;;;;5072316;28;1244;-79
2022/11/10 06:59:03;;;;;;;;;;;;;;;;;;5073997;28;816;-79
2022/11/10 07:01:28;;;;;;;;;;;;;;;;;;5054971;28;1288;-78
2022/11/10 07:03:53;;;;;;;;;;;;;;;;;;5072907;28;1011;-78
2022/11/10 07:06:19;;;;;;;;;;;;;;;;;;5071685;28;1973;-79
2022/11/10 07:08:45;;;;;;;;;;;;;;;;;;5054122;28;1142;-78
2022/11/10 07:11:10;;;;;;;;;;;;;;;;;;5054578;28;1060;-78
2022/11/10 07:13:35;;;;;;;;;;;;;;;;;;5054745;28;1175;-79
2022/11/10 07:16:05;;;;;;;;;;;;;;;;;;5071158;28;1230;-79
2022/11/10 07:18:30;;;;;;;;;;;;;;;;;;5070791;28;1264;-79
2022/11/10 07:20:55;;;;;;;;;;;;;;;;;;5072373;28;836;-78
2022/11/10 07:23:20;;;;;;;;;;;;;;;;;;5071087;28;1280;-78
2022/11/10 07:25:46;;;;;;;;;;;;;;;;;;5054013;28;1910;-78
2022/11/10 07:28:11;;;;;;;;;;;;;;;;;;5072125;28;877;-78
2022/11/10 07:30:37;;;;;;;;;;;;;;;;;;5072999;28;872;-80
2022/11/10 07:33:03;;;;;;;;;;;;;;;;;;5070734;28;1200;-80
2022/11/10 07:35:29;;;;;;;;;;;;;;;;;;5070790;28;1312;-80
2022/11/10 07:37:55;;;;;;;;;;;;;;;;;;5070638;28;1194;-80
2022/11/10 07:40:21;;;;;;;;;;;;;;;;;;5070623;28;1416;-80
2022/11/10 07:42:46;;;;;;;;;;;;;;;;;;5071369;28;1201;-80
2022/11/10 07:45:11;;;;;;;;;;;;;;;;;;5071269;28;1146;-80
2022/11/10 07:47:37;;;;;;;;;;;;;;;;;;5071259;28;1887;-80
2022/11/10 07:50:03;;;;;;;;;;;;;;;;;;5070789;28;1265;-81
2022/11/10 07:52:28;;;;;;;;;;;;;;;;;;5073443;28;961;-80
2022/11/10 07:54:53;;;;;;;;;;;;;;;;;;5054578;28;1184;-81
2022/11/10 07:57:19;;;;;;;;;;;;;;;;;;5052789;28;1190;-80
2022/11/10 07:59:44;;;;;;;;;;;;;;;;;;5070399;28;1249;-80
2022/11/10 08:02:10;;;;;;;;;;;;;;;;;;5054016;28;1144;-80
2022/11/10 08:04:35;;;;;;;;;;;;;;;;;;5070746;28;1245;-80
2022/11/10 08:07:02;;;;;;;;;;;;;;;;;;5072643;28;1979;-80
2022/11/10 08:09:27;;;;;;;;;;;;;;;;;;5071669;28;1257;-80
2022/11/10 08:11:53;;;;;;;;;;;;;;;;;;5071160;28;1324;-80
2022/11/10 08:14:18;;;;;;;;;;;;;;;;;;5071387;28;797;-80
2022/11/10 08:16:43;;;;;;;;;;;;;;;;;;5070753;28;872;-80
2022/11/10 08:19:09;;;;;;;;;;;;;;;;;;5071411;28;1058;-81
2022/11/10 08:21:34;;;;;;;;;;;;;;;;;;5071454;28;1278;-80
2022/11/10 08:23:59;;;;;;;;;;;;;;;;;;5054175;28;1254;-81
2022/11/10 08:26:25;;;;;;;;;;;;;;;;;;5070647;28;2028;-81
2022/11/10 08:28:50;;;;;;;;;;;;;;;;;;5072742;28;821;-81
2022/11/10 08:31:15;;;;;;;;;;;;;;;;;;5071068;28;1281;-81
2022/11/10 08:33:40;;;;;;;;;;;;;;;;;;5054092;28;1634;-81
2022/11/10 08:36:06;;;;;;;;;;;;;;;;;;5070233;28;1213;-80
2022/11/10 08:38:31;;;;;;;;;;;;;;;;;;5070312;28;1170;-81
2022/11/10 08:40:57;;;;;;;;;;;;;;;;;;5070480;28;1435;-81
2022/11/10 08:43:22;;;;;;;;;;;;;;;;;;5070387;28;849;-81
2022/11/10 08:45:47;;;;;;;;;;;;;;;;;;5049812;28;1914;-81
2022/11/10 08:48:17;;;;;;;;;;;;;;;;;;5051082;28;837;-81
2022/11/10 08:50:42;;;;;;;;;;;;;;;;;;5050943;28;770;-82
2022/11/10 08:53:12;;;;;;;;;;;;;;;;;;5051432;28;1514;-80
2022/11/10 08:55:38;;;;;;;;;;;;;;;;;;5053149;28;1282;-80
2022/11/10 08:58:04;;;;;;;;;;;;;;;;;;5086667;28;944;-80
2022/11/10 09:00:30;;;;;;;;;;;;;;;;;;5053808;28;1194;-80
2022/11/10 09:03:01;;;;;;;;;;;;;;;;;;5053859;28;1211;-80
2022/11/10 09:05:26;;;;;;;;;;;;;;;;;;5053652;28;1906;-78
2022/11/10 09:07:52;;;;;;;;;;;;;;;;;;5055173;28;904;-78
2022/11/10 09:10:17;;;;;;;;;;;;;;;;;;5054910;28;888;-78
2022/11/10 09:12:42;;;;;;;;;;;;;;;;;;5087549;28;1003;-78
2022/11/10 09:15:08;;;;;;;;;;;;;;;;;;5086935;28;1103;-78
2022/11/10 09:17:34;;;;;;;;;;;;;;;;;;5070072;28;1182;-79
2022/11/10 09:19:59;;;;;;;;;;;;;;;;;;5069015;28;1188;-79
2022/11/10 09:22:24;;;;;;;;;;;;;;;;;;5084753;28;1021;-79
2022/11/10 09:24:50;;;;;;;;;;;;;;;;;;5068437;28;1211;-79
2022/11/10 09:27:15;;;;;;;;;;;;;;;;;;5068066;28;1914;-79
2022/11/10 09:29:40;;;;;;;;;;;;;;;;;;5053682;28;782;-79
2022/11/10 09:32:05;;;;;;;;;;;;;;;;;;5051239;28;1165;-78
2022/11/10 09:34:31;;;;;;;;;;;;;;;;;;5067932;28;1207;-78
2022/11/10 09:36:56;;;;;;;;;;;;;;;;;;5068146;28;1193;-78
2022/11/10 09:39:21;;;;;;;;;;;;;;;;;;5053035;28;786;-78
2022/11/10 09:41:47;;;;;;;;;;;;;;;;;;5053104;28;924;-79
2022/11/10 09:44:19;;;;;;;;;;;;;;;;;;5052370;28;957;-79
2022/11/10 09:46:56;;;;;;;;;;;;;;;;;;5053024;28;1902;-79
2022/11/10 09:49:29;;;;;;;;;;;;;;;;;;5051139;28;1180;-79
2022/11/10 09:51:56;;;;;;;;;;;;;;;;;;5051595;28;1217;-79
2022/11/10 09:54:33;;;;;;;;;;;;;;;;;;5052507;28;873;-79
2022/11/10 09:56:59;;;;;;;;;;;;;;;;;;5085163;28;1284;-79
2022/11/10 09:59:29;;;;;;;;;;;;;;;;;;5068170;28;1202;-79
2022/11/10 10:02:09;;;;;;;;;;;;;;;;;;5053037;28;813;-79
2022/11/10 10:04:37;;;;;;;;;;;;;;;;;;5053008;28;956;-79
2022/11/10 10:07:06;;;;;;;;;;;;;;;;;;5085049;28;1933;-78
2022/11/10 10:09:38;;;;;;;;;;;;;;;;;;5085117;28;1170;-79
2022/11/10 10:12:38;;;;;;;;;;;;;;;;;;5052613;28;1226;-79
2022/11/10 10:15:16;;;;;;;;;;;;;;;;;;5051627;28;1339;-79
2022/11/10 10:17:47;;;;;;;;;;;;;;;;;;5085756;28;1435;-72
2022/11/10 10:20:29;;;;;;;;;;;;;;;;;;5053141;28;857;-72
2022/11/10 10:23:03;;;;;;;;;;;;;;;;;;5054192;28;1055;-72
2022/11/10 10:25:29;;;;;;;;;;;;;;;;;;5053346;28;1940;-72
2022/11/10 10:28:04;;;;;;;;;;;;;;;;;;5053004;28;869;-71
2022/11/10 10:30:29;;;;;;;;;;;;;;;;;;5084272;28;1261;-72
2022/11/10 10:32:59;;;;;;;;;;;;;;;;;;5052135;28;1378;-73
2022/11/10 10:35:24;;;;;;;;;;;;;;;;;;5084511;28;1135;-71
2022/11/10 10:37:54;;;;;;;;;;;;;;;;;;5052620;28;849;-72
2022/11/10 10:40:21;;;;;;;;;;;;;;;;;;5050130;28;1199;-71
2022/11/10 10:42:46;;;;;;;;;;;;;;;;;;5050937;28;1167;-71
2022/11/10 10:45:12;;;;;;;;;;;;;;;;;;5051943;28;818;-78
2022/11/10 10:47:38;;;;;;;;;;;;;;;;;;5051815;28;2374;-78
2022/11/10 10:50:15;;;;;;;;;;;;;;;;;;5051747;28;1137;-77
2022/11/10 10:52:40;;;;;;;;;;;;;;;;;;5052110;28;934;-79
2022/11/10 10:55:07;;;;;;;;;;;;;;;;;;5066920;28;1127;-78
2022/11/10 10:57:32;;;;;;;;;;;;;;;;;;5067299;28;1226;-79
2022/11/10 11:00:16;;;;;;;;;;;;;;;;;;5051171;28;1134;-79
2022/11/10 11:02:41;;;;;;;;;;;;;;;;;;5084586;28;1131;-79
2022/11/10 11:05:17;;;;;;;;;;;;;;;;;;5050954;28;844;-79
2022/11/10 11:07:59;;;;;;;;;;;;;;;;;;5051321;28;1910;-79
2022/11/10 11:10:25;;;;;;;;;;;;;;;;;;5051102;28;924;-80
2022/11/10 11:12:51;;;;;;;;;;;;;;;;;;5051449;28;829;-79
2022/11/10 11:15:27;;;;;;;;;;;;;;;;;;5050978;28;900;-79
2022/11/10 11:17:54;;;;;;;;;;;;;;;;;;5051922;28;1336;-79
2022/11/10 11:20:22;;;;;;;;;;;;;;;;;;5050942;28;1293;-79
2022/11/10 11:22:52;;;;;;;;;;;;;;;;;;5050740;28;1140;-79
2022/11/10 11:25:21;;;;;;;;;;;;;;;;;;5050672;28;1185;-79
2022/11/10 11:28:05;;;;;;;;;;;;;;;;;;5050708;28;1906;-79
2022/11/10 11:30:40;;;;;;;;;;;;;;;;;;5084030;28;1297;-79
2022/11/10 11:33:05;;;;;;;;;;;;;;;;;;5051947;28;1127;-78
2022/11/10 11:35:33;;;;;;;;;;;;;;;;;;5085046;28;1178;-79
2022/11/10 11:38:02;;;;;;;;;;;;;;;;;;5085171;28;1296;-79
2022/11/10 11:40:38;;;;;;;;;;;;;;;;;;5084524;28;1027;-78
2022/11/10 11:43:22;;;;;;;;;;;;;;;;;;5052562;28;813;-78
2022/11/10 11:46:05;;;;;;;;;;;;;;;;;;5052020;28;1915;-79
2022/11/10 11:48:33;;;;;;;;;;;;;;;;;;5085076;28;1283;-79
2022/11/10 11:51:06;;;;;;;;;;;;;;;;;;5052183;28;967;-79
2022/11/10 11:53:50;;;;;;;;;;;;;;;;;;5052548;28;866;-79
2022/11/10 11:56:19;;;;;;;;;;;;;;;;;;5084137;28;1204;-79
2022/11/10 11:58:50;;;;;;;;;;;;;;;;;;5052184;28;794;-79
2022/11/10 12:01:34;;;;;;;;;;;;;;;;;;5051336;28;1230;-79
2022/11/10 12:04:14;;;;;;;;;;;;;;;;;;5052611;28;790;-79
2022/11/10 12:06:54;;;;;;;;;;;;;;;;;;5051882;28;1891;-79
2022/11/10 12:09:38;;;;;;;;;;;;;;;;;;5052185;28;904;-79
2022/11/10 12:12:15;;;;;;;;;;;;;;;;;;5053566;28;983;-79
2022/11/10 12:15:10;;;;;;;;;;;;;;;;;;5052658;28;1179;-79
2022/11/10 12:17:54;;;;;;;;;;;;;;;;;;5051284;28;1259;-79
2022/11/10 12:20:34;;;;;;;;;;;;;;;;;;5083537;28;1336;-79
2022/11/10 12:23:05;;;;;;;;;;;;;;;;;;5050199;28;1159;-79
2022/11/10 12:25:52;;;;;;;;;;;;;;;;;;5083709;28;1910;-79
2022/11/10 12:28:27;;;;;;;;;;;;;;;;;;5053579;28;1223;-78
2022/11/10 12:30:57;;;;;;;;;;;;;;;;;;5053344;28;1195;-79
2022/11/10 12:33:32;;;;;;;;;;;;;;;;;;5053069;28;1317;-79
2022/11/10 12:35:59;;;;;;;;;;;;;;;;;;5053878;28;1201;-78
2022/11/10 12:38:45;;;;;;;;;;;;;;;;;;5054283;28;1226;-79
2022/11/10 12:41:13;;;;;;;;;;;;;;;;;;5053888;28;1250;-77
2022/11/10 12:43:48;;;;;;;;;;;;;;;;;;5054201;28;1216;-78
2022/11/10 12:46:14;;;;;;;;;;;;;;;;;;5055239;28;1975;-79
2022/11/10 12:48:53;;;;;;;;;;;;;;;;;;5054026;28;1144;-80
2022/11/10 12:51:37;;;;;;;;;;;;;;;;;;5055139;28;1130;-79
2022/11/10 12:54:02;;;;;;;;;;;;;;;;;;5086535;28;1402;-79
2022/11/10 12:56:41;;;;;;;;;;;;;;;;;;5070460;28;1379;-79
2022/11/10 12:59:19;;;;;;;;;;;;;;;;;;5053973;28;1087;-79
2022/11/10 13:01:45;;;;;;;;;;;;;;;;;;5054763;28;1288;-78
2022/11/10 13:04:13;;;;;;;;;;;;;;;;;;5053827;28;1339;-79
2022/11/10 13:06:44;;;;;;;;;;;;;;;;;;5055431;28;1910;-79
2022/11/10 13:09:21;;;;;;;;;;;;;;;;;;5055603;28;929;-80
2022/11/10 13:12:02;;;;;;;;;;;;;;;;;;5055192;28;1138;-80
2022/11/10 13:14:28;;;;;;;;;;;;;;;;;;5054584;28;1175;-80
2022/11/10 13:16:55;;;;;;;;;;;;;;;;;;5055195;28;1306;-80
2022/11/10 13:19:23;;;;;;;;;;;;;;;;;;5056265;28;825;-80
2022/11/10 13:21:51;;;;;;;;;;;;;;;;;;5087898;28;1137;-80
2022/11/10 13:24:31;;;;;;;;;;;;;;;;;;5087663;28;1281;-80
2022/11/10 13:27:00;;;;;;;;;;;;;;;;;;5054707;28;1942;-80
2022/11/10 13:29:44;;;;;;;;;;;;;;;;;;5054204;28;1249;-80
2022/11/10 13:32:12;;;;;;;;;;;;;;;;;;5087837;28;1206;-80
2022/11/10 13:34:38;;;;;;;;;;;;;;;;;;5055693;28;1278;-80
2022/11/10 13:37:22;;;;;;;;;;;;;;;;;;5055512;28;825;-80
2022/11/10 13:39:47;;;;;;;;;;;;;;;;;;5088695;28;1226;-79
2022/11/10 13:42:17;;;;;;;;;;;;;;;;;;5056773;28;1187;-80
2022/11/10 13:44:46;;;;;;;;;;;;;;;;;;5056317;28;1173;-81
2022/11/10 13:47:34;;;;;;;;;;;;;;;;;;5070655;28;1917;-81
2022/11/10 13:50:19;;;;;;;;;;;;;;;;;;5055628;28;904;-81
2022/11/10 13:53:00;;;;;;;;;;;;;;;;;;5054368;28;1262;-81
2022/11/10 13:55:44;;;;;;;;;;;;;;;;;;5054851;28;1235;-80
2022/11/10 13:58:11;;;;;;;;;;;;;;;;;;5088323;28;1163;-80
2022/11/10 14:00:37;;;;;;;;;;;;;;;;;;5054093;28;1194;-81
2022/11/10 14:03:06;;;;;;;;;;;;;;;;;;5055259;28;853;-81
2022/11/10 14:05:33;;;;;;;;;;;;;;;;;;5053636;28;1874;-80
2022/11/10 14:08:10;;;;;;;;;;;;;;;;;;5087223;28;1269;-80
2022/11/10 14:10:46;;;;;;;;;;;;;;;;;;5054519;28;964;-81
2022/11/10 14:13:41;;;;;;;;;;;;;;;;;;5053653;28;1306;-80
2022/11/10 14:16:16;;;;;;;;;;;;;;;;;;5055108;28;936;-79
2022/11/10 14:18:53;;;;;;;;;;;;;;;;;;5053398;28;1313;-79
2022/11/10 14:21:21;;;;;;;;;;;;;;;;;;5087592;28;1042;-80
2022/11/10 14:23:49;;;;;;;;;;;;;;;;;;5054005;28;1309;-79
2022/11/10 14:26:27;;;;;;;;;;;;;;;;;;5054951;28;1888;-79
2022/11/10 14:28:52;;;;;;;;;;;;;;;;;;5057777;28;1385;-80
2022/11/10 14:31:24;;;;;;;;;;;;;;;;;;5087893;28;955;-80
2022/11/10 14:33:54;;;;;;;;;;;;;;;;;;5063710;28;1002;-80
2022/11/10 14:36:22;;;;;;;;;;;;;;;;;;5062576;28;956;-80
2022/11/10 14:38:48;;;;;;;;;;;;;;;;;;5065150;28;1057;-80
2022/11/10 14:41:20;;;;;;;;;;;;;;;;;;5061881;28;1031;-79
2022/11/10 14:44:00;;;;;;;;;;;;;;;;;;5061865;28;1171;-80
2022/11/10 14:46:25;;;;;;;;;;;;;;;;;;5060448;28;1973;-80
2022/11/10 14:48:58;;;;;;;;;;;;;;;;;;5092558;28;1038;-79
2022/11/10 14:51:24;;;;;;;;;;;;;;;;;;5060949;28;880;-79
2022/11/10 14:53:53;;;;;;;;;;;;;;;;;;5075279;28;1115;-79
2022/11/10 14:56:22;;;;;;;;;;;;;;;;;;5061188;28;934;-79
2022/11/10 14:58:48;;;;;;;;;;;;;;;;;;5061818;28;1050;-80
2022/11/10 15:01:22;;;;;;;;;;;;;;;;;;5061333;28;829;-79
2022/11/10 15:03:47;;;;;;;;;;;;;;;;;;5059969;28;1237;-78
2022/11/10 15:06:13;;;;;;;;;;;;;;;;;;5078514;28;1910;-77
2022/11/10 15:08:39;;;;;;;;;;;;;;;;;;5075790;28;1050;-76
2022/11/10 15:11:04;;;;;;;;;;;;;;;;;;5075163;28;833;-77
2022/11/10 15:13:30;;;;;;;;;;;;;;;;;;5074352;28;893;-76
2022/11/10 15:16:14;;;;;;;;;;;;;;;;;;5072455;28;1218;-76
2022/11/10 15:18:40;;;;;;;;;;;;;;;;;;5074074;28;930;-76
2022/11/10 15:21:08;;;;;;;;;;;;;;;;;;5075272;28;922;-76
2022/11/10 15:23:38;;;;;;;;;;;;;;;;;;5073731;28;1058;-76
2022/11/10 15:26:22;;;;;;;;;;;;;;;;;;5072658;28;1906;-77
2022/11/10 15:28:48;;;;;;;;;;;;;;;;;;5073615;28;967;-79
2022/11/10 15:31:23;;;;;;;;;;;;;;;;;;5072854;28;881;-80
2022/11/10 15:33:51;;;;;;;;;;;;;;;;;;5073036;28;1128;-80
2022/11/10 15:36:32;;;;;;;;;;;;;;;;;;5073009;28;959;-80
2022/11/10 15:39:18;;;;;;;;;;;;;;;;;;5072192;28;1257;-80
2022/11/10 15:41:45;;;;;;;;;;;;;;;;;;5073029;28;1186;-80
2022/11/10 15:44:21;;;;;;;;;;;;;;;;;;5073276;28;1174;-81
2022/11/10 15:46:47;;;;;;;;;;;;;;;;;;5074957;28;1906;-81
2022/11/10 15:49:21;;;;;;;;;;;;;;;;;;5072802;28;880;-80
2022/11/10 15:51:47;;;;;;;;;;;;;;;;;;5074630;28;884;-80
2022/11/10 15:54:13;;;;;;;;;;;;;;;;;;5073705;28;1070;-81
2022/11/10 15:56:38;;;;;;;;;;;;;;;;;;5058638;28;1300;-81
2022/11/10 15:59:03;;;;;;;;;;;;;;;;;;5072979;28;1014;-81
2022/11/10 16:01:29;;;;;;;;;;;;;;;;;;5056537;28;1156;-79
2022/11/10 16:03:57;;;;;;;;;;;;;;;;;;5077312;28;904;-81
2022/11/10 16:06:22;;;;;;;;;;;;;;;;;;5075487;28;1901;-80
2022/11/10 16:08:47;;;;;;;;;;;;;;;;;;5075683;28;1019;-79
2022/11/10 16:11:16;;;;;;;;;;;;;;;;;;5088612;28;1171;-81
2022/11/10 16:13:41;;;;;;;;;;;;;;;;;;5097432;28;820;-78
2022/11/10 16:16:09;;;;;;;;;;;;;;;;;;5097488;28;987;-78
2022/11/10 16:18:34;;;;;;;;;;;;;;;;;;5096838;28;892;-78
2022/11/10 16:21:00;;;;;;;;;;;;;;;;;;5096795;28;935;-78
2022/11/10 16:23:25;;;;;;;;;;;;;;;;;;5095733;28;1320;-80
2022/11/10 16:25:53;;;;;;;;;;;;;;;;;;5076507;28;1914;-78
2022/11/10 16:28:22;;;;;;;;;;;;;;;;;;5075641;28;871;-79
2022/11/10 16:30:47;;;;;;;;;;;;;;;;;;5077503;28;821;-78
2022/11/10 16:33:13;;;;;;;;;;;;;;;;;;5076295;28;1160;-77
2022/11/10 16:35:39;;;;;;;;;;;;;;;;;;5074364;28;1160;-80
2022/11/10 16:38:25;;;;;;;;;;;;;;;;;;5076483;28;991;-79
2022/11/10 16:40:55;;;;;;;;;;;;;;;;;;5075546;28;1000;-78
2022/11/10 16:43:21;;;;;;;;;;;;;;;;;;5076219;28;970;-79
2022/11/10 16:45:47;;;;;;;;;;;;;;;;;;5075119;28;1910;-79
2022/11/10 16:48:17;;;;;;;;;;;;;;;;;;5076092;28;1207;-80
2022/11/10 16:50:43;;;;;;;;;;;;;;;;;;5094484;28;1411;-79
2022/11/10 16:53:16;;;;;;;;;;;;;;;;;;5096373;28;1057;-79
2022/11/10 16:55:41;;;;;;;;;;;;;;;;;;5096563;28;1257;-80
2022/11/10 16:58:06;;;;;;;;;;;;;;;;;;5097636;28;817;-79
2022/11/10 17:00:32;;;;;;;;;;;;;;;;;;5096115;28;789;-79
2022/11/10 17:03:01;;;;;;;;;;;;;;;;;;5095862;28;1091;-80
2022/11/10 17:05:26;;;;;;;;;;;;;;;;;;5096321;28;845;-80
2022/11/10 17:07:52;;;;;;;;;;;;;;;;;;5095843;28;2039;-79
2022/11/10 17:10:19;;;;;;;;;;;;;;;;;;5095468;28;1173;-79
2022/11/10 17:12:44;;;;;;;;;;;;;;;;;;5093704;28;1190;-80
2022/11/10 17:15:10;;;;;;;;;;;;;;;;;;5094740;28;1265;-80
2022/11/10 17:17:36;;;;;;;;;;;;;;;;;;5094743;28;1079;-80
2022/11/10 17:20:01;;;;;;;;;;;;;;;;;;5094326;28;1182;-79
2022/11/10 17:22:30;;;;;;;;;;;;;;;;;;5095568;28;942;-79
2022/11/10 17:24:56;;;;;;;;;;;;;;;;;;5095718;28;875;-78
2022/11/10 17:27:22;;;;;;;;;;;;;;;;;;5093958;28;1954;-78
2022/11/10 17:29:47;;;;;;;;;;;;;;;;;;5077552;28;1298;-79
2022/11/10 17:32:12;;;;;;;;;;;;;;;;;;5094351;28;1046;-79